createdAt,value
2019-01-22T00:03:28.471Z,-6.60
2019-01-22T00:10:10.297Z,-6.73
2019-01-22T00:16:36.478Z,-6.73
2019-01-22T00:23:04.319Z,-6.77
2019-01-22T00:33:06.174Z,-6.85
2019-01-22T00:39:44.221Z,-6.83
2019-01-22T00:46:21.150Z,-6.89
2019-01-22T00:53:09.963Z,-6.93
2019-01-22T00:59:45.114Z,-7.00
2019-01-22T01:06:23.822Z,-7.06
2019-01-22T01:13:02.778Z,-7.17
2019-01-22T01:19:41.733Z,-7.16
2019-01-22T01:26:25.609Z,-7.19
2019-01-22T01:35:51.560Z,-7.25
2019-01-22T01:42:17.125Z,-7.33
2019-01-22T01:48:42.975Z,-7.29
2019-01-22T01:55:17.102Z,-7.35
2019-01-22T02:01:43.685Z,-7.32
2019-01-22T02:08:09.535Z,-7.44
2019-01-22T02:14:53.800Z,-7.45
2019-01-22T02:22:10.082Z,-7.63
2019-01-22T02:29:17.317Z,-7.71
2019-01-22T02:40:30.663Z,-7.67
2019-01-22T02:47:46.074Z,-7.67
2019-01-22T02:54:31.994Z,-7.70
2019-01-22T03:01:19.144Z,-7.75
2019-01-22T03:08:50.541Z,-7.69
2019-01-22T03:16:14.199Z,-7.74
2019-01-22T03:23:20.947Z,-7.74
2019-01-22T03:30:46.844Z,-7.78
2019-01-22T03:41:29.201Z,-7.70
2019-01-22T03:49:18.681Z,-7.66
2019-01-22T03:56:33.152Z,-7.56
2019-01-22T04:02:58.712Z,-7.46
2019-01-22T04:09:51.062Z,-7.35
2019-01-22T04:16:21.542Z,-7.19
2019-01-22T04:22:42.476Z,-7.12
2019-01-22T04:29:57.898Z,-7.09
2019-01-22T04:37:37.550Z,-6.99
2019-01-22T04:44:49.605Z,-6.78
2019-01-22T04:52:27.960Z,-6.68
2019-01-22T04:59:30.258Z,-6.57
2019-01-22T05:06:57.981Z,-6.46
2019-01-22T05:14:11.735Z,-6.38
2019-01-22T05:21:49.814Z,-6.27
2019-01-22T05:33:03.084Z,-6.12
2019-01-22T05:43:35.502Z,-5.94
2019-01-22T05:50:49.683Z,-5.83
2019-01-22T05:58:05.354Z,-5.68
2019-01-22T06:05:20.515Z,-5.57
2019-01-22T06:13:07.052Z,-5.50
2019-01-22T06:20:15.101Z,-5.39
2019-01-22T06:26:56.095Z,-5.33
2019-01-22T06:34:02.496Z,-5.26
2019-01-22T06:45:18.404Z,-5.10
2019-01-22T06:52:43.588Z,-5.04
2019-01-22T06:59:52.055Z,-4.97
2019-01-22T07:06:57.263Z,-4.88
2019-01-22T07:14:07.298Z,-4.91
2019-01-22T07:21:41.013Z,-4.80
2019-01-22T07:29:04.404Z,-4.70
2019-01-22T07:36:06.581Z,-4.61
2019-01-22T07:53:47.089Z,-4.41
2019-01-22T08:01:30.388Z,-4.34
2019-01-22T08:08:26.543Z,-4.26
2019-01-22T08:15:53.829Z,-4.20
2019-01-22T08:23:47.912Z,-4.14
2019-01-22T08:31:36.336Z,-4.09
2019-01-22T08:39:15.580Z,-3.97
2019-01-22T08:50:08.419Z,-3.92
2019-01-22T08:57:30.383Z,-3.81
2019-01-22T09:04:48.273Z,-3.70
2019-01-22T09:12:12.271Z,-3.66
2019-01-22T09:19:53.085Z,-3.56
2019-01-22T09:26:24.661Z,-3.53
2019-01-22T09:33:27.289Z,-3.43
2019-01-22T09:39:53.114Z,-3.33
2019-01-22T09:50:06.816Z,-3.26
2019-01-22T09:56:45.776Z,-3.18
2019-01-22T10:03:29.143Z,-3.07
2019-01-22T10:10:06.065Z,-2.98
2019-01-22T10:16:45.013Z,-2.90
2019-01-22T10:23:22.834Z,-2.86
2019-01-22T10:30:02.912Z,-2.79
2019-01-22T10:36:43.883Z,-2.74
2019-01-22T10:43:24.615Z,-2.68
2019-01-22T10:53:30.436Z,-2.57
2019-01-22T10:59:59.558Z,-2.46
2019-01-22T11:06:26.531Z,-2.46
2019-01-22T11:12:55.383Z,-2.32
2019-01-22T11:19:27.785Z,-2.23
2019-01-22T11:25:52.083Z,-2.21
2019-01-22T11:32:16.899Z,-2.21
2019-01-22T11:38:42.722Z,-2.11
2019-01-22T11:45:10.332Z,-1.99
2019-01-22T11:54:36.861Z,-1.93
2019-01-22T12:01:15.773Z,-1.91
2019-01-22T12:07:55.081Z,-1.84
2019-01-22T12:14:20.901Z,-1.78
2019-01-22T12:20:50.537Z,-1.73
2019-01-22T12:27:19.244Z,-1.69
2019-01-22T12:33:45.429Z,-1.64
2019-01-22T12:40:17.312Z,-1.60
2019-01-22T12:46:43.768Z,-1.56
2019-01-22T12:56:22.530Z,-1.54
2019-01-22T13:02:59.800Z,-1.52
2019-01-22T13:09:38.752Z,-1.53
2019-01-22T13:16:17.355Z,-1.50
2019-01-22T13:22:56.655Z,-1.52
2019-01-22T13:29:33.580Z,-1.50
2019-01-22T13:36:13.410Z,-1.37
2019-01-22T13:42:52.374Z,-1.31
2019-01-22T13:49:34.191Z,-1.23
2019-01-22T13:58:46.984Z,-1.22
2019-01-22T14:09:05.081Z,-1.23
2019-01-22T14:15:49.081Z,-1.23
2019-01-22T14:22:14.904Z,-1.28
2019-01-22T14:28:40.721Z,-1.20
2019-01-22T14:35:08.314Z,-1.23
2019-01-22T14:41:39.078Z,-1.22
2019-01-22T14:48:08.208Z,-1.29
2019-01-22T14:54:33.097Z,-1.33
2019-01-22T15:00:45.780Z,-1.33
2019-01-22T15:07:28.212Z,-1.34
2019-01-22T15:14:10.454Z,-1.33
2019-01-22T15:20:47.679Z,-1.30
2019-01-22T15:27:28.371Z,-1.31
2019-01-22T15:34:09.683Z,-1.39
2019-01-22T15:40:46.549Z,-1.38
2019-01-22T15:47:29.334Z,-1.42
2019-01-22T15:54:11.522Z,-1.47
2019-01-22T16:00:37.339Z,-1.50
2019-01-22T16:07:03.161Z,-1.58
2019-01-22T16:13:28.983Z,-1.70
2019-01-22T16:19:56.599Z,-1.74
2019-01-22T16:26:25.316Z,-1.78
2019-01-22T16:33:06.642Z,-1.78
2019-01-22T16:39:32.461Z,-1.76
2019-01-22T16:46:11.413Z,-1.77
2019-01-22T16:52:50.362Z,-1.71
2019-01-22T16:58:58.002Z,-1.71
2019-01-22T17:05:40.992Z,-1.76
2019-01-22T17:12:08.456Z,-1.72
2019-01-22T17:18:38.694Z,-1.75
2019-01-22T17:25:06.303Z,-1.76
2019-01-22T17:30:58.012Z,-1.71
2019-01-22T17:37:25.641Z,-1.70
2019-01-22T17:43:52.682Z,-1.69
2019-01-22T17:50:24.310Z,-1.63
2019-01-22T17:56:50.397Z,-1.63
2019-01-22T18:06:42.244Z,-1.64
2019-01-22T18:13:19.181Z,-1.64
2019-01-22T18:19:56.103Z,-1.71
2019-01-22T18:26:22.107Z,-1.70
2019-01-22T18:32:15.198Z,-1.70
2019-01-22T18:38:50.334Z,-1.76
2019-01-22T18:45:17.960Z,-1.73
2019-01-22T18:51:47.900Z,-1.70
2019-01-22T18:58:16.920Z,-1.66
2019-01-22T19:08:19.853Z,-1.64
2019-01-22T19:15:01.867Z,-1.62
2019-01-22T19:21:39.777Z,-1.61
2019-01-22T19:28:27.811Z,-1.65
2019-01-22T19:35:12.828Z,-1.62
2019-01-22T19:41:51.778Z,-1.62
2019-01-22T19:48:31.330Z,-1.61
2019-01-22T19:54:57.553Z,-1.61
2019-01-22T20:01:25.391Z,-1.58
2019-01-22T20:11:28.358Z,-1.61
2019-01-22T20:17:58.219Z,-1.60
2019-01-22T20:24:23.815Z,-1.56
2019-01-22T20:30:53.347Z,-1.59
2019-01-22T20:37:20.725Z,-1.67
2019-01-22T20:43:48.571Z,-1.66
2019-01-22T20:50:19.643Z,-1.64
2019-01-22T20:56:47.279Z,-1.65
2019-01-22T21:03:17.138Z,-1.59
2019-01-22T21:09:48.683Z,-1.58
2019-01-22T21:16:16.861Z,-1.58
2019-01-22T21:23:07.668Z,-1.58
2019-01-22T21:29:50.721Z,-1.63
2019-01-22T21:36:34.588Z,-1.71
2019-01-22T21:43:19.863Z,-1.65
2019-01-22T21:50:02.335Z,-1.65
2019-01-22T21:56:44.922Z,-1.60
2019-01-22T22:03:10.718Z,-1.58
2019-01-22T22:09:38.315Z,-1.56
2019-01-22T22:16:04.384Z,-1.54
2019-01-22T22:22:30.833Z,-1.52
2019-01-22T22:28:57.040Z,-1.49
2019-01-22T22:35:24.589Z,-1.53
2019-01-22T22:41:50.692Z,-1.48
2019-01-22T22:47:42.384Z,-1.47
2019-01-22T22:54:05.969Z,-1.46
2019-01-22T23:01:28.060Z,-1.43
2019-01-22T23:07:57.201Z,-1.45
2019-01-22T23:17:47.833Z,-1.39
2019-01-22T23:24:26.792Z,-1.40
2019-01-22T23:31:05.948Z,-1.39
2019-01-22T23:37:47.928Z,-1.39
2019-01-22T23:44:30.917Z,-1.39
2019-01-22T23:50:35.179Z,-1.36
2019-01-22T23:57:20.539Z,-1.33
